sensor_id;sensor_type;location;lat;lon;timestamp;P1;durP1;ratioP1;P2;durP2;ratioP2
78004;SDS011;67209;51.698;-0.292;2023-12-28T00:00:32;17.30;;;2.55;;
78004;SDS011;67209;51.698;-0.292;2023-12-28T00:02:58;18.10;;;3.03;;
78004;SDS011;67209;51.698;-0.292;2023-12-28T00:05:24;17.10;;;2.83;;
78004;SDS011;67209;51.698;-0.292;2023-12-28T00:07:53;15.93;;;2.47;;
78004;SDS011;67209;51.698;-0.292;2023-12-28T00:10:26;12.85;;;2.17;;
78004;SDS011;67209;51.698;-0.292;2023-12-28T00:12:53;17.95;;;3.20;;
78004;SDS011;67209;51.698;-0.292;2023-12-28T00:15:19;12.98;;;2.80;;
78004;SDS011;67209;51.698;-0.292;2023-12-28T00:17:45;18.92;;;2.90;;
78004;SDS011;67209;51.698;-0.292;2023-12-28T00:20:11;16.88;;;3.03;;
78004;SDS011;67209;51.698;-0.292;2023-12-28T00:22:37;15.82;;;2.72;;
78004;SDS011;67209;51.698;-0.292;2023-12-28T00:25:04;18.48;;;2.92;;
78004;SDS011;67209;51.698;-0.292;2023-12-28T00:27:30;18.17;;;3.25;;
78004;SDS011;67209;51.698;-0.292;2023-12-28T00:29:56;14.38;;;3.00;;
78004;SDS011;67209;51.698;-0.292;2023-12-28T00:32:22;12.18;;;2.55;;
78004;SDS011;67209;51.698;-0.292;2023-12-28T00:34:48;17.10;;;2.80;;
78004;SDS011;67209;51.698;-0.292;2023-12-28T00:37:14;17.17;;;2.67;;
78004;SDS011;67209;51.698;-0.292;2023-12-28T00:39:40;18.23;;;2.53;;
78004;SDS011;67209;51.698;-0.292;2023-12-28T00:42:06;18.73;;;3.45;;
78004;SDS011;67209;51.698;-0.292;2023-12-28T00:44:32;19.60;;;3.08;;
78004;SDS011;67209;51.698;-0.292;2023-12-28T00:46:58;15.25;;;2.33;;
78004;SDS011;67209;51.698;-0.292;2023-12-28T00:49:24;20.70;;;3.05;;
78004;SDS011;67209;51.698;-0.292;2023-12-28T00:51:50;15.05;;;2.45;;
78004;SDS011;67209;51.698;-0.292;2023-12-28T00:54:16;21.20;;;2.78;;
78004;SDS011;67209;51.698;-0.292;2023-12-28T00:56:42;17.15;;;3.50;;
78004;SDS011;67209;51.698;-0.292;2023-12-28T00:59:08;14.50;;;2.70;;
78004;SDS011;67209;51.698;-0.292;2023-12-28T01:01:34;10.15;;;2.35;;
78004;SDS011;67209;51.698;-0.292;2023-12-28T01:04:00;18.77;;;3.22;;
78004;SDS011;67209;51.698;-0.292;2023-12-28T01:06:26;10.38;;;2.30;;
78004;SDS011;67209;51.698;-0.292;2023-12-28T01:08:54;17.38;;;3.05;;
78004;SDS011;67209;51.698;-0.292;2023-12-28T01:11:20;17.15;;;3.00;;
78004;SDS011;67209;51.698;-0.292;2023-12-28T01:13:46;23.48;;;3.63;;
78004;SDS011;67209;51.698;-0.292;2023-12-28T01:16:12;19.83;;;3.50;;
78004;SDS011;67209;51.698;-0.292;2023-12-28T01:18:38;18.40;;;3.38;;
78004;SDS011;67209;51.698;-0.292;2023-12-28T01:21:04;17.38;;;3.42;;
78004;SDS011;67209;51.698;-0.292;2023-12-28T01:23:31;16.65;;;2.42;;
78004;SDS011;67209;51.698;-0.292;2023-12-28T01:25:57;17.75;;;2.58;;
78004;SDS011;67209;51.698;-0.292;2023-12-28T01:28:23;14.02;;;2.53;;
78004;SDS011;67209;51.698;-0.292;2023-12-28T01:30:49;19.90;;;2.78;;
78004;SDS011;67209;51.698;-0.292;2023-12-28T01:33:15;16.65;;;3.38;;
78004;SDS011;67209;51.698;-0.292;2023-12-28T01:35:41;21.35;;;3.42;;
78004;SDS011;67209;51.698;-0.292;2023-12-28T01:38:07;16.08;;;3.20;;
78004;SDS011;67209;51.698;-0.292;2023-12-28T01:40:33;18.75;;;3.60;;
78004;SDS011;67209;51.698;-0.292;2023-12-28T01:42:59;19.60;;;3.67;;
78004;SDS011;67209;51.698;-0.292;2023-12-28T01:45:26;25.25;;;4.22;;
78004;SDS011;67209;51.698;-0.292;2023-12-28T01:47:55;23.55;;;3.88;;
78004;SDS011;67209;51.698;-0.292;2023-12-28T01:50:23;14.75;;;3.13;;
78004;SDS011;67209;51.698;-0.292;2023-12-28T01:52:50;19.83;;;3.20;;
78004;SDS011;67209;51.698;-0.292;2023-12-28T01:55:16;17.10;;;3.80;;
78004;SDS011;67209;51.698;-0.292;2023-12-28T01:57:42;19.23;;;3.42;;
78004;SDS011;67209;51.698;-0.292;2023-12-28T02:00:09;20.00;;;3.17;;
78004;SDS011;67209;51.698;-0.292;2023-12-28T02:02:35;12.20;;;2.92;;
78004;SDS011;67209;51.698;-0.292;2023-12-28T02:05:01;20.23;;;2.75;;
78004;SDS011;67209;51.698;-0.292;2023-12-28T02:07:27;14.65;;;2.80;;
78004;SDS011;67209;51.698;-0.292;2023-12-28T02:09:55;13.93;;;3.17;;
78004;SDS011;67209;51.698;-0.292;2023-12-28T02:12:21;14.10;;;3.28;;
78004;SDS011;67209;51.698;-0.292;2023-12-28T02:14:47;13.48;;;2.20;;
78004;SDS011;67209;51.698;-0.292;2023-12-28T02:17:16;10.07;;;2.17;;
78004;SDS011;67209;51.698;-0.292;2023-12-28T02:19:52;11.77;;;2.47;;
78004;SDS011;67209;51.698;-0.292;2023-12-28T02:22:18;15.10;;;2.85;;
78004;SDS011;67209;51.698;-0.292;2023-12-28T02:27:26;15.40;;;2.58;;
78004;SDS011;67209;51.698;-0.292;2023-12-28T02:29:52;22.08;;;3.38;;
78004;SDS011;67209;51.698;-0.292;2023-12-28T02:32:20;11.68;;;2.28;;
78004;SDS011;67209;51.698;-0.292;2023-12-28T02:34:48;15.02;;;2.38;;
78004;SDS011;67209;51.698;-0.292;2023-12-28T02:37:16;13.63;;;2.58;;
78004;SDS011;67209;51.698;-0.292;2023-12-28T02:39:42;15.15;;;2.38;;
78004;SDS011;67209;51.698;-0.292;2023-12-28T02:42:09;14.60;;;2.20;;
78004;SDS011;67209;51.698;-0.292;2023-12-28T02:44:36;12.13;;;2.35;;
78004;SDS011;67209;51.698;-0.292;2023-12-28T02:47:02;19.25;;;3.38;;
78004;SDS011;67209;51.698;-0.292;2023-12-28T02:49:28;14.35;;;2.50;;
78004;SDS011;67209;51.698;-0.292;2023-12-28T02:51:54;13.55;;;2.33;;
78004;SDS011;67209;51.698;-0.292;2023-12-28T02:54:20;10.93;;;2.50;;
78004;SDS011;67209;51.698;-0.292;2023-12-28T02:56:46;10.63;;;2.45;;
78004;SDS011;67209;51.698;-0.292;2023-12-28T02:59:12;15.90;;;2.67;;
78004;SDS011;67209;51.698;-0.292;2023-12-28T03:01:38;12.38;;;2.25;;
78004;SDS011;67209;51.698;-0.292;2023-12-28T03:04:04;14.02;;;1.92;;
78004;SDS011;67209;51.698;-0.292;2023-12-28T03:06:30;13.27;;;2.35;;
78004;SDS011;67209;51.698;-0.292;2023-12-28T03:08:56;15.65;;;3.00;;
78004;SDS011;67209;51.698;-0.292;2023-12-28T03:11:22;20.60;;;4.25;;
78004;SDS011;67209;51.698;-0.292;2023-12-28T03:13:48;15.65;;;2.88;;
78004;SDS011;67209;51.698;-0.292;2023-12-28T03:16:14;18.00;;;2.95;;
78004;SDS011;67209;51.698;-0.292;2023-12-28T03:18:40;14.80;;;3.55;;
78004;SDS011;67209;51.698;-0.292;2023-12-28T03:21:06;20.80;;;4.03;;
78004;SDS011;67209;51.698;-0.292;2023-12-28T03:23:32;18.60;;;2.60;;
78004;SDS011;67209;51.698;-0.292;2023-12-28T03:26:00;23.63;;;3.55;;
78004;SDS011;67209;51.698;-0.292;2023-12-28T03:28:26;24.75;;;4.93;;
78004;SDS011;67209;51.698;-0.292;2023-12-28T03:30:52;23.58;;;5.22;;
78004;SDS011;67209;51.698;-0.292;2023-12-28T03:33:19;22.10;;;3.72;;
78004;SDS011;67209;51.698;-0.292;2023-12-28T03:35:45;27.50;;;3.42;;
78004;SDS011;67209;51.698;-0.292;2023-12-28T03:38:11;17.83;;;3.80;;
78004;SDS011;67209;51.698;-0.292;2023-12-28T03:40:37;18.02;;;3.17;;
78004;SDS011;67209;51.698;-0.292;2023-12-28T03:43:03;17.48;;;3.35;;
78004;SDS011;67209;51.698;-0.292;2023-12-28T03:45:29;18.83;;;3.75;;
78004;SDS011;67209;51.698;-0.292;2023-12-28T03:47:55;31.15;;;5.00;;
78004;SDS011;67209;51.698;-0.292;2023-12-28T03:50:21;20.35;;;3.15;;
78004;SDS011;67209;51.698;-0.292;2023-12-28T03:52:47;20.23;;;3.60;;
78004;SDS011;67209;51.698;-0.292;2023-12-28T03:55:13;23.60;;;4.22;;
78004;SDS011;67209;51.698;-0.292;2023-12-28T03:57:39;29.55;;;3.92;;
78004;SDS011;67209;51.698;-0.292;2023-12-28T04:00:07;19.95;;;3.75;;
78004;SDS011;67209;51.698;-0.292;2023-12-28T04:02:33;23.52;;;3.50;;
78004;SDS011;67209;51.698;-0.292;2023-12-28T04:04:59;22.77;;;4.20;;
78004;SDS011;67209;51.698;-0.292;2023-12-28T04:07:25;21.33;;;4.30;;
78004;SDS011;67209;51.698;-0.292;2023-12-28T04:09:51;21.20;;;3.88;;
78004;SDS011;67209;51.698;-0.292;2023-12-28T04:12:17;13.70;;;3.63;;
78004;SDS011;67209;51.698;-0.292;2023-12-28T04:14:43;27.63;;;5.00;;
78004;SDS011;67209;51.698;-0.292;2023-12-28T04:17:09;21.73;;;4.10;;
78004;SDS011;67209;51.698;-0.292;2023-12-28T04:19:35;21.67;;;4.10;;
78004;SDS011;67209;51.698;-0.292;2023-12-28T04:22:01;20.48;;;3.97;;
78004;SDS011;67209;51.698;-0.292;2023-12-28T04:24:27;21.85;;;3.75;;
78004;SDS011;67209;51.698;-0.292;2023-12-28T04:26:54;25.40;;;3.85;;
78004;SDS011;67209;51.698;-0.292;2023-12-28T04:29:20;21.23;;;3.95;;
78004;SDS011;67209;51.698;-0.292;2023-12-28T04:31:46;24.00;;;3.53;;
78004;SDS011;67209;51.698;-0.292;2023-12-28T04:34:12;24.20;;;4.05;;
78004;SDS011;67209;51.698;-0.292;2023-12-28T04:36:41;26.50;;;3.78;;
78004;SDS011;67209;51.698;-0.292;2023-12-28T04:39:08;17.42;;;3.30;;
78004;SDS011;67209;51.698;-0.292;2023-12-28T04:41:34;23.20;;;3.75;;
78004;SDS011;67209;51.698;-0.292;2023-12-28T04:44:00;23.40;;;4.22;;
78004;SDS011;67209;51.698;-0.292;2023-12-28T04:46:26;27.00;;;4.32;;
78004;SDS011;67209;51.698;-0.292;2023-12-28T04:48:52;26.42;;;4.00;;
78004;SDS011;67209;51.698;-0.292;2023-12-28T04:51:18;22.55;;;4.70;;
78004;SDS011;67209;51.698;-0.292;2023-12-28T04:53:44;23.02;;;4.10;;
78004;SDS011;67209;51.698;-0.292;2023-12-28T04:56:10;24.25;;;3.85;;
78004;SDS011;67209;51.698;-0.292;2023-12-28T04:58:36;18.67;;;3.90;;
78004;SDS011;67209;51.698;-0.292;2023-12-28T05:01:02;21.23;;;4.47;;
78004;SDS011;67209;51.698;-0.292;2023-12-28T05:03:29;24.75;;;4.10;;
78004;SDS011;67209;51.698;-0.292;2023-12-28T05:05:55;19.85;;;4.22;;
78004;SDS011;67209;51.698;-0.292;2023-12-28T05:08:21;24.23;;;3.72;;
78004;SDS011;67209;51.698;-0.292;2023-12-28T05:10:47;20.25;;;4.07;;
78004;SDS011;67209;51.698;-0.292;2023-12-28T05:13:13;19.15;;;3.63;;
78004;SDS011;67209;51.698;-0.292;2023-12-28T05:15:39;20.08;;;4.47;;
78004;SDS011;67209;51.698;-0.292;2023-12-28T05:18:05;23.27;;;3.10;;
78004;SDS011;67209;51.698;-0.292;2023-12-28T05:20:33;24.27;;;4.78;;
78004;SDS011;67209;51.698;-0.292;2023-12-28T05:22:59;21.38;;;3.50;;
78004;SDS011;67209;51.698;-0.292;2023-12-28T05:25:25;19.15;;;3.10;;
78004;SDS011;67209;51.698;-0.292;2023-12-28T05:27:51;27.65;;;4.10;;
78004;SDS011;67209;51.698;-0.292;2023-12-28T05:30:17;21.58;;;4.32;;
78004;SDS011;67209;51.698;-0.292;2023-12-28T05:32:43;18.20;;;3.90;;
78004;SDS011;67209;51.698;-0.292;2023-12-28T05:35:09;17.67;;;3.08;;
78004;SDS011;67209;51.698;-0.292;2023-12-28T05:37:35;17.98;;;3.38;;
78004;SDS011;67209;51.698;-0.292;2023-12-28T05:40:01;20.58;;;3.58;;
78004;SDS011;67209;51.698;-0.292;2023-12-28T05:42:27;23.17;;;4.05;;
78004;SDS011;67209;51.698;-0.292;2023-12-28T05:44:53;23.80;;;3.17;;
78004;SDS011;67209;51.698;-0.292;2023-12-28T05:47:19;15.43;;;3.38;;
78004;SDS011;67209;51.698;-0.292;2023-12-28T05:49:45;17.65;;;3.70;;
78004;SDS011;67209;51.698;-0.292;2023-12-28T05:52:11;22.95;;;5.05;;
78004;SDS011;67209;51.698;-0.292;2023-12-28T05:54:40;20.20;;;3.85;;
78004;SDS011;67209;51.698;-0.292;2023-12-28T05:57:07;15.93;;;2.60;;
78004;SDS011;67209;51.698;-0.292;2023-12-28T05:59:37;23.73;;;3.65;;
78004;SDS011;67209;51.698;-0.292;2023-12-28T06:02:03;26.48;;;3.50;;
78004;SDS011;67209;51.698;-0.292;2023-12-28T06:04:29;21.20;;;3.05;;
78004;SDS011;67209;51.698;-0.292;2023-12-28T06:06:55;19.40;;;3.22;;
78004;SDS011;67209;51.698;-0.292;2023-12-28T06:09:21;18.92;;;3.38;;
78004;SDS011;67209;51.698;-0.292;2023-12-28T06:11:47;17.17;;;3.30;;
78004;SDS011;67209;51.698;-0.292;2023-12-28T06:14:13;14.38;;;2.75;;
78004;SDS011;67209;51.698;-0.292;2023-12-28T06:16:39;18.75;;;2.80;;
78004;SDS011;67209;51.698;-0.292;2023-12-28T06:19:05;14.93;;;2.70;;
78004;SDS011;67209;51.698;-0.292;2023-12-28T06:21:31;17.75;;;3.30;;
78004;SDS011;67209;51.698;-0.292;2023-12-28T06:23:59;17.17;;;2.83;;
78004;SDS011;67209;51.698;-0.292;2023-12-28T06:26:25;17.33;;;3.47;;
78004;SDS011;67209;51.698;-0.292;2023-12-28T06:28:51;19.33;;;3.15;;
78004;SDS011;67209;51.698;-0.292;2023-12-28T06:31:17;15.65;;;2.60;;
78004;SDS011;67209;51.698;-0.292;2023-12-28T06:33:43;14.40;;;2.50;;
78004;SDS011;67209;51.698;-0.292;2023-12-28T06:36:09;12.27;;;2.50;;
78004;SDS011;67209;51.698;-0.292;2023-12-28T06:38:35;15.77;;;2.75;;
78004;SDS011;67209;51.698;-0.292;2023-12-28T06:41:02;16.08;;;2.65;;
78004;SDS011;67209;51.698;-0.292;2023-12-28T06:43:28;17.83;;;2.90;;
78004;SDS011;67209;51.698;-0.292;2023-12-28T06:45:54;11.00;;;2.53;;
78004;SDS011;67209;51.698;-0.292;2023-12-28T06:48:20;12.45;;;2.22;;
78004;SDS011;67209;51.698;-0.292;2023-12-28T06:50:46;11.82;;;2.53;;
78004;SDS011;67209;51.698;-0.292;2023-12-28T06:53:12;10.57;;;1.88;;
78004;SDS011;67209;51.698;-0.292;2023-12-28T06:55:38;13.93;;;2.38;;
78004;SDS011;67209;51.698;-0.292;2023-12-28T06:58:04;10.82;;;2.55;;
78004;SDS011;67209;51.698;-0.292;2023-12-28T07:00:32;17.00;;;3.25;;
78004;SDS011;67209;51.698;-0.292;2023-12-28T07:02:58;20.45;;;2.88;;
78004;SDS011;67209;51.698;-0.292;2023-12-28T07:05:24;22.52;;;3.30;;
78004;SDS011;67209;51.698;-0.292;2023-12-28T07:07:50;15.00;;;2.60;;
78004;SDS011;67209;51.698;-0.292;2023-12-28T07:10:16;15.52;;;2.58;;
78004;SDS011;67209;51.698;-0.292;2023-12-28T07:12:42;16.27;;;3.13;;
78004;SDS011;67209;51.698;-0.292;2023-12-28T07:15:08;19.65;;;3.97;;
78004;SDS011;67209;51.698;-0.292;2023-12-28T07:17:38;14.93;;;4.07;;
78004;SDS011;67209;51.698;-0.292;2023-12-28T07:20:04;21.23;;;3.45;;
78004;SDS011;67209;51.698;-0.292;2023-12-28T07:22:30;22.08;;;3.67;;
78004;SDS011;67209;51.698;-0.292;2023-12-28T07:24:57;22.88;;;3.88;;
78004;SDS011;67209;51.698;-0.292;2023-12-28T07:27:23;22.50;;;3.83;;
78004;SDS011;67209;51.698;-0.292;2023-12-28T07:29:50;22.38;;;3.55;;
78004;SDS011;67209;51.698;-0.292;2023-12-28T07:32:15;14.68;;;2.97;;
78004;SDS011;67209;51.698;-0.292;2023-12-28T07:34:41;22.38;;;3.15;;
78004;SDS011;67209;51.698;-0.292;2023-12-28T07:37:08;24.88;;;3.95;;
78004;SDS011;67209;51.698;-0.292;2023-12-28T07:39:34;18.13;;;3.85;;
78004;SDS011;67209;51.698;-0.292;2023-12-28T07:42:00;23.10;;;3.65;;
78004;SDS011;67209;51.698;-0.292;2023-12-28T07:44:26;17.63;;;4.03;;
78004;SDS011;67209;51.698;-0.292;2023-12-28T07:46:52;20.25;;;3.35;;
78004;SDS011;67209;51.698;-0.292;2023-12-28T07:49:18;17.98;;;3.10;;
78004;SDS011;67209;51.698;-0.292;2023-12-28T07:51:44;26.77;;;4.00;;
78004;SDS011;67209;51.698;-0.292;2023-12-28T07:54:10;28.38;;;4.55;;
78004;SDS011;67209;51.698;-0.292;2023-12-28T07:56:36;25.42;;;4.10;;
78004;SDS011;67209;51.698;-0.292;2023-12-28T07:59:02;28.80;;;4.82;;
78004;SDS011;67209;51.698;-0.292;2023-12-28T08:01:28;23.05;;;4.72;;
78004;SDS011;67209;51.698;-0.292;2023-12-28T08:03:54;30.83;;;4.32;;
78004;SDS011;67209;51.698;-0.292;2023-12-28T08:06:20;31.90;;;4.32;;
78004;SDS011;67209;51.698;-0.292;2023-12-28T08:08:46;19.75;;;3.45;;
78004;SDS011;67209;51.698;-0.292;2023-12-28T08:11:13;28.70;;;4.15;;
78004;SDS011;67209;51.698;-0.292;2023-12-28T08:13:39;23.63;;;4.70;;
78004;SDS011;67209;51.698;-0.292;2023-12-28T08:16:05;23.05;;;4.25;;
78004;SDS011;67209;51.698;-0.292;2023-12-28T08:18:31;22.65;;;4.00;;
78004;SDS011;67209;51.698;-0.292;2023-12-28T08:20:57;20.35;;;3.92;;
78004;SDS011;67209;51.698;-0.292;2023-12-28T08:23:25;26.83;;;4.35;;
78004;SDS011;67209;51.698;-0.292;2023-12-28T08:25:51;25.40;;;4.93;;
78004;SDS011;67209;51.698;-0.292;2023-12-28T08:28:17;16.58;;;4.03;;
78004;SDS011;67209;51.698;-0.292;2023-12-28T08:30:43;28.35;;;4.38;;
78004;SDS011;67209;51.698;-0.292;2023-12-28T08:33:09;21.70;;;4.78;;
78004;SDS011;67209;51.698;-0.292;2023-12-28T08:35:35;24.15;;;4.82;;
78004;SDS011;67209;51.698;-0.292;2023-12-28T08:38:01;25.25;;;4.35;;
78004;SDS011;67209;51.698;-0.292;2023-12-28T08:40:27;24.77;;;5.18;;
78004;SDS011;67209;51.698;-0.292;2023-12-28T08:42:53;23.85;;;4.25;;
78004;SDS011;67209;51.698;-0.292;2023-12-28T08:45:19;27.55;;;5.82;;
78004;SDS011;67209;51.698;-0.292;2023-12-28T08:47:45;22.13;;;3.75;;
78004;SDS011;67209;51.698;-0.292;2023-12-28T08:50:11;29.23;;;4.47;;
78004;SDS011;67209;51.698;-0.292;2023-12-28T08:52:37;14.57;;;3.35;;
78004;SDS011;67209;51.698;-0.292;2023-12-28T08:55:04;21.63;;;3.50;;
78004;SDS011;67209;51.698;-0.292;2023-12-28T08:57:30;13.02;;;2.90;;
78004;SDS011;67209;51.698;-0.292;2023-12-28T08:59:57;22.95;;;3.35;;
78004;SDS011;67209;51.698;-0.292;2023-12-28T09:02:27;13.13;;;3.25;;
78004;SDS011;67209;51.698;-0.292;2023-12-28T09:04:53;16.90;;;2.80;;
78004;SDS011;67209;51.698;-0.292;2023-12-28T09:07:19;11.20;;;2.42;;
78004;SDS011;67209;51.698;-0.292;2023-12-28T09:09:45;19.17;;;3.00;;
78004;SDS011;67209;51.698;-0.292;2023-12-28T09:12:11;11.45;;;2.38;;
78004;SDS011;67209;51.698;-0.292;2023-12-28T09:14:37;19.75;;;3.00;;
78004;SDS011;67209;51.698;-0.292;2023-12-28T09:17:03;11.57;;;2.03;;
78004;SDS011;67209;51.698;-0.292;2023-12-28T09:19:29;16.65;;;2.40;;
78004;SDS011;67209;51.698;-0.292;2023-12-28T09:21:55;15.38;;;2.70;;
78004;SDS011;67209;51.698;-0.292;2023-12-28T09:24:21;14.10;;;2.47;;
78004;SDS011;67209;51.698;-0.292;2023-12-28T09:26:47;10.40;;;2.35;;
78004;SDS011;67209;51.698;-0.292;2023-12-28T09:29:13;11.55;;;2.20;;
78004;SDS011;67209;51.698;-0.292;2023-12-28T09:31:39;15.80;;;2.70;;
78004;SDS011;67209;51.698;-0.292;2023-12-28T09:34:06;14.40;;;2.85;;
78004;SDS011;67209;51.698;-0.292;2023-12-28T09:36:31;18.48;;;3.20;;
78004;SDS011;67209;51.698;-0.292;2023-12-28T09:38:57;15.02;;;2.33;;
78004;SDS011;67209;51.698;-0.292;2023-12-28T09:41:27;15.80;;;2.05;;
78004;SDS011;67209;51.698;-0.292;2023-12-28T09:46:21;16.85;;;3.10;;
78004;SDS011;67209;51.698;-0.292;2023-12-28T09:48:47;15.43;;;2.55;;
78004;SDS011;67209;51.698;-0.292;2023-12-28T09:51:14;16.98;;;2.75;;
78004;SDS011;67209;51.698;-0.292;2023-12-28T09:53:41;13.20;;;2.45;;
78004;SDS011;67209;51.698;-0.292;2023-12-28T09:56:09;11.43;;;2.70;;
78004;SDS011;67209;51.698;-0.292;2023-12-28T09:58:35;17.52;;;2.80;;
78004;SDS011;67209;51.698;-0.292;2023-12-28T10:01:02;18.75;;;3.42;;
78004;SDS011;67209;51.698;-0.292;2023-12-28T10:03:29;14.65;;;2.70;;
78004;SDS011;67209;51.698;-0.292;2023-12-28T10:05:55;18.27;;;4.28;;
78004;SDS011;67209;51.698;-0.292;2023-12-28T10:08:21;23.13;;;4.05;;
78004;SDS011;67209;51.698;-0.292;2023-12-28T10:10:47;15.48;;;3.05;;
78004;SDS011;67209;51.698;-0.292;2023-12-28T10:13:18;19.75;;;4.07;;
78004;SDS011;67209;51.698;-0.292;2023-12-28T10:15:45;20.98;;;3.20;;
78004;SDS011;67209;51.698;-0.292;2023-12-28T10:18:11;16.52;;;3.83;;
78004;SDS011;67209;51.698;-0.292;2023-12-28T10:20:37;22.67;;;3.45;;
78004;SDS011;67209;51.698;-0.292;2023-12-28T10:23:03;24.48;;;3.92;;
78004;SDS011;67209;51.698;-0.292;2023-12-28T10:25:30;17.05;;;3.95;;
78004;SDS011;67209;51.698;-0.292;2023-12-28T10:27:56;18.10;;;3.53;;
78004;SDS011;67209;51.698;-0.292;2023-12-28T10:30:22;26.77;;;3.47;;
78004;SDS011;67209;51.698;-0.292;2023-12-28T10:32:48;22.65;;;3.40;;
78004;SDS011;67209;51.698;-0.292;2023-12-28T10:35:15;16.85;;;3.10;;
78004;SDS011;67209;51.698;-0.292;2023-12-28T10:37:41;17.30;;;4.07;;
78004;SDS011;67209;51.698;-0.292;2023-12-28T10:40:07;18.08;;;4.82;;
78004;SDS011;67209;51.698;-0.292;2023-12-28T10:42:42;26.38;;;3.20;;
78004;SDS011;67209;51.698;-0.292;2023-12-28T10:45:10;24.83;;;3.88;;
78004;SDS011;67209;51.698;-0.292;2023-12-28T10:47:37;20.73;;;3.33;;
78004;SDS011;67209;51.698;-0.292;2023-12-28T10:50:04;22.20;;;3.70;;
78004;SDS011;67209;51.698;-0.292;2023-12-28T10:52:31;22.25;;;3.95;;
78004;SDS011;67209;51.698;-0.292;2023-12-28T10:57:33;23.00;;;3.63;;
78004;SDS011;67209;51.698;-0.292;2023-12-28T11:00:06;15.30;;;3.13;;
78004;SDS011;67209;51.698;-0.292;2023-12-28T11:02:44;17.83;;;3.72;;
78004;SDS011;67209;51.698;-0.292;2023-12-28T11:05:13;20.20;;;3.33;;
78004;SDS011;67209;51.698;-0.292;2023-12-28T11:07:40;16.38;;;2.90;;
78004;SDS011;67209;51.698;-0.292;2023-12-28T11:10:06;18.80;;;3.85;;
78004;SDS011;67209;51.698;-0.292;2023-12-28T11:12:35;19.08;;;3.83;;
78004;SDS011;67209;51.698;-0.292;2023-12-28T11:15:01;17.55;;;4.07;;
78004;SDS011;67209;51.698;-0.292;2023-12-28T11:17:28;17.23;;;3.28;;
78004;SDS011;67209;51.698;-0.292;2023-12-28T11:19:56;19.40;;;3.30;;
78004;SDS011;67209;51.698;-0.292;2023-12-28T11:22:22;16.38;;;3.00;;
78004;SDS011;67209;51.698;-0.292;2023-12-28T11:24:52;13.18;;;2.05;;
78004;SDS011;67209;51.698;-0.292;2023-12-28T11:27:18;8.80;;;2.38;;
78004;SDS011;67209;51.698;-0.292;2023-12-28T11:29:47;9.88;;;2.22;;
78004;SDS011;67209;51.698;-0.292;2023-12-28T11:32:13;12.98;;;2.22;;
78004;SDS011;67209;51.698;-0.292;2023-12-28T11:34:39;7.97;;;1.88;;
78004;SDS011;67209;51.698;-0.292;2023-12-28T11:37:08;9.82;;;1.98;;
78004;SDS011;67209;51.698;-0.292;2023-12-28T11:39:39;11.00;;;2.03;;
78004;SDS011;67209;51.698;-0.292;2023-12-28T11:42:08;7.00;;;1.42;;
78004;SDS011;67209;51.698;-0.292;2023-12-28T11:44:39;8.65;;;2.08;;
78004;SDS011;67209;51.698;-0.292;2023-12-28T11:47:16;11.23;;;1.88;;
78004;SDS011;67209;51.698;-0.292;2023-12-28T11:49:42;9.70;;;1.48;;
78004;SDS011;67209;51.698;-0.292;2023-12-28T11:52:21;9.52;;;2.60;;
78004;SDS011;67209;51.698;-0.292;2023-12-28T11:54:48;16.35;;;2.40;;
78004;SDS011;67209;51.698;-0.292;2023-12-28T11:57:15;11.75;;;1.90;;
78004;SDS011;67209;51.698;-0.292;2023-12-28T11:59:41;9.55;;;1.30;;
78004;SDS011;67209;51.698;-0.292;2023-12-28T12:02:07;12.38;;;1.85;;
78004;SDS011;67209;51.698;-0.292;2023-12-28T12:04:34;9.85;;;1.80;;
78004;SDS011;67209;51.698;-0.292;2023-12-28T12:07:02;13.00;;;2.00;;
78004;SDS011;67209;51.698;-0.292;2023-12-28T12:09:29;7.65;;;1.77;;
78004;SDS011;67209;51.698;-0.292;2023-12-28T12:11:59;10.48;;;1.63;;
78004;SDS011;67209;51.698;-0.292;2023-12-28T12:14:25;7.50;;;1.88;;
78004;SDS011;67209;51.698;-0.292;2023-12-28T12:16:51;6.97;;;1.50;;
78004;SDS011;67209;51.698;-0.292;2023-12-28T12:19:18;7.45;;;1.35;;
78004;SDS011;67209;51.698;-0.292;2023-12-28T12:21:44;6.45;;;1.17;;
78004;SDS011;67209;51.698;-0.292;2023-12-28T12:24:14;8.52;;;1.25;;
78004;SDS011;67209;51.698;-0.292;2023-12-28T12:26:40;4.68;;;1.00;;
78004;SDS011;67209;51.698;-0.292;2023-12-28T12:29:06;7.20;;;1.20;;
78004;SDS011;67209;51.698;-0.292;2023-12-28T12:31:32;10.75;;;1.67;;
78004;SDS011;67209;51.698;-0.292;2023-12-28T12:33:58;6.80;;;1.48;;
78004;SDS011;67209;51.698;-0.292;2023-12-28T12:36:24;8.50;;;1.80;;
78004;SDS011;67209;51.698;-0.292;2023-12-28T12:38:50;7.72;;;1.83;;
78004;SDS011;67209;51.698;-0.292;2023-12-28T12:41:16;10.55;;;1.70;;
78004;SDS011;67209;51.698;-0.292;2023-12-28T12:43:42;16.55;;;2.35;;
78004;SDS011;67209;51.698;-0.292;2023-12-28T12:46:08;9.50;;;1.83;;
78004;SDS011;67209;51.698;-0.292;2023-12-28T12:48:34;13.52;;;2.13;;
78004;SDS011;67209;51.698;-0.292;2023-12-28T12:51:01;13.45;;;2.15;;
78004;SDS011;67209;51.698;-0.292;2023-12-28T12:53:34;21.38;;;2.90;;
78004;SDS011;67209;51.698;-0.292;2023-12-28T12:56:02;17.60;;;3.72;;
78004;SDS011;67209;51.698;-0.292;2023-12-28T12:58:30;19.70;;;3.22;;
78004;SDS011;67209;51.698;-0.292;2023-12-28T13:00:56;13.93;;;2.28;;
78004;SDS011;67209;51.698;-0.292;2023-12-28T13:03:22;14.07;;;2.53;;
78004;SDS011;67209;51.698;-0.292;2023-12-28T13:05:48;11.00;;;2.20;;
78004;SDS011;67209;51.698;-0.292;2023-12-28T13:08:14;19.63;;;3.33;;
78004;SDS011;67209;51.698;-0.292;2023-12-28T13:10:40;18.65;;;3.17;;
78004;SDS011;67209;51.698;-0.292;2023-12-28T13:13:07;19.92;;;2.85;;
78004;SDS011;67209;51.698;-0.292;2023-12-28T13:15:33;20.13;;;3.60;;
78004;SDS011;67209;51.698;-0.292;2023-12-28T13:17:59;17.58;;;3.17;;
78004;SDS011;67209;51.698;-0.292;2023-12-28T13:20:25;15.57;;;3.08;;
78004;SDS011;67209;51.698;-0.292;2023-12-28T13:22:51;15.98;;;2.78;;
78004;SDS011;67209;51.698;-0.292;2023-12-28T13:25:17;18.48;;;2.70;;
78004;SDS011;67209;51.698;-0.292;2023-12-28T13:27:43;12.80;;;3.03;;
78004;SDS011;67209;51.698;-0.292;2023-12-28T13:30:09;12.75;;;2.75;;
78004;SDS011;67209;51.698;-0.292;2023-12-28T13:32:37;16.65;;;2.88;;
78004;SDS011;67209;51.698;-0.292;2023-12-28T13:35:03;21.77;;;3.13;;
78004;SDS011;67209;51.698;-0.292;2023-12-28T13:37:29;13.32;;;2.30;;
78004;SDS011;67209;51.698;-0.292;2023-12-28T13:39:55;16.33;;;2.63;;
78004;SDS011;67209;51.698;-0.292;2023-12-28T13:42:21;11.48;;;2.25;;
78004;SDS011;67209;51.698;-0.292;2023-12-28T13:44:48;15.63;;;3.03;;
78004;SDS011;67209;51.698;-0.292;2023-12-28T13:47:14;15.25;;;2.60;;
78004;SDS011;67209;51.698;-0.292;2023-12-28T13:49:40;18.08;;;3.45;;
78004;SDS011;67209;51.698;-0.292;2023-12-28T13:52:06;12.55;;;2.58;;
78004;SDS011;67209;51.698;-0.292;2023-12-28T13:54:32;17.80;;;2.78;;
78004;SDS011;67209;51.698;-0.292;2023-12-28T13:56:58;11.52;;;2.38;;
78004;SDS011;67209;51.698;-0.292;2023-12-28T13:59:25;17.83;;;3.08;;
78004;SDS011;67209;51.698;-0.292;2023-12-28T14:01:51;21.10;;;2.85;;
78004;SDS011;67209;51.698;-0.292;2023-12-28T14:04:17;14.70;;;2.70;;
78004;SDS011;67209;51.698;-0.292;2023-12-28T14:06:43;14.23;;;2.70;;
78004;SDS011;67209;51.698;-0.292;2023-12-28T14:09:09;12.10;;;2.42;;
78004;SDS011;67209;51.698;-0.292;2023-12-28T14:11:37;13.90;;;2.28;;
78004;SDS011;67209;51.698;-0.292;2023-12-28T14:14:06;9.45;;;2.35;;
78004;SDS011;67209;51.698;-0.292;2023-12-28T14:16:32;17.88;;;2.50;;
78004;SDS011;67209;51.698;-0.292;2023-12-28T14:18:58;15.90;;;2.85;;
78004;SDS011;67209;51.698;-0.292;2023-12-28T14:21:24;11.75;;;2.38;;
78004;SDS011;67209;51.698;-0.292;2023-12-28T14:23:50;13.77;;;2.42;;
78004;SDS011;67209;51.698;-0.292;2023-12-28T14:26:16;13.27;;;2.20;;